FDX448 YSCB-YSSY
Flight info
| Callsign | FDX448 |
|---|---|
| Flight time | 0h 33m |
| Altitude | 23000 |
| Route | CB W423 CULIN Y59 RIVET |
| Aircraft | MD11/H-SDE1E2E3FGHIJ2J3J4J5M1RWXY/LB1D1 |
Departure
| Time | 2026-05-01 09:07 |
|---|---|
| Airport | Canberra Airport (YSCB) |
Arrival
| Time | 2026-05-01 09:40 |
|---|---|
| Airport | Sydney Kingsford Smith International Airport (YSSY) |
| Time | Latitude | Longitude | Altitude | Speed | Heading |
|---|---|---|---|---|---|
| 2026-05-01 08:47 | -35.30598 | 149.18966 | 1877 ft | 0 kts | 220° |
| 2026-05-01 08:55 | -35.30590 | 149.18974 | 1885 ft | 2 kts | 220° |
| 2026-05-01 08:55 | -35.30578 | 149.18987 | 1881 ft | 2 kts | 220° |
| 2026-05-01 08:55 | -35.30565 | 149.19000 | 1879 ft | 2 kts | 218° |
| 2026-05-01 08:55 | -35.30553 | 149.19013 | 1879 ft | 2 kts | 202° |
| 2026-05-01 08:56 | -35.30537 | 149.19014 | 1883 ft | 2 kts | 143° |
| 2026-05-01 08:56 | -35.30531 | 149.19009 | 1882 ft | 0 kts | 135° |
| 2026-05-01 09:02 | -35.30540 | 149.19020 | 1887 ft | 6 kts | 132° |
| 2026-05-01 09:02 | -35.30602 | 149.19104 | 1883 ft | 20 kts | 132° |
| 2026-05-01 09:02 | -35.30726 | 149.19224 | 1885 ft | 23 kts | 163° |
| 2026-05-01 09:02 | -35.30873 | 149.19242 | 1880 ft | 20 kts | 180° |
| 2026-05-01 09:03 | -35.31006 | 149.19241 | 1885 ft | 18 kts | 180° |
| 2026-05-01 09:03 | -35.31126 | 149.19239 | 1885 ft | 16 kts | 180° |
| 2026-05-01 09:03 | -35.31234 | 149.19238 | 1887 ft | 15 kts | 180° |
| 2026-05-01 09:03 | -35.31339 | 149.19236 | 1884 ft | 17 kts | 180° |
| 2026-05-01 09:04 | -35.31471 | 149.19238 | 1879 ft | 21 kts | 178° |
| 2026-05-01 09:04 | -35.31633 | 149.19243 | 1885 ft | 25 kts | 178° |
| 2026-05-01 09:04 | -35.31822 | 149.19245 | 1881 ft | 29 kts | 182° |
| 2026-05-01 09:04 | -35.31987 | 149.19261 | 1881 ft | 14 kts | 144° |
| 2026-05-01 09:05 | -35.32021 | 149.19346 | 1882 ft | 13 kts | 100° |
| 2026-05-01 09:05 | -35.31994 | 149.19442 | 1882 ft | 8 kts | 33° |
| 2026-05-01 09:05 | -35.31908 | 149.19448 | 1884 ft | 13 kts | 0° |
| 2026-05-01 09:05 | -35.31899 | 149.19448 | 1879 ft | 0 kts | 0° |
| 2026-05-01 09:06 | -35.31878 | 149.19448 | 1884 ft | 14 kts | 0° |
| 2026-05-01 09:06 | -35.31490 | 149.19447 | 1886 ft | 99 kts | 360° |
| 2026-05-01 09:06 | -35.30583 | 149.19446 | 1886 ft | 158 kts | 0° |
| 2026-05-01 09:06 | -35.29359 | 149.19422 | 2083 ft | 186 kts | 0° |
| 2026-05-01 09:07 | -35.28073 | 149.19394 | 2848 ft | 182 kts | 6° |
| 2026-05-01 09:07 | -35.26855 | 149.19566 | 3959 ft | 171 kts | 11° |
| 2026-05-01 09:07 | -35.25693 | 149.19761 | 5011 ft | 173 kts | 10° |
| 2026-05-01 09:07 | -35.24385 | 149.19969 | 5412 ft | 211 kts | 8° |
| 2026-05-01 09:08 | -35.22787 | 149.20202 | 5573 ft | 251 kts | 7° |
| 2026-05-01 09:08 | -35.21005 | 149.20437 | 6422 ft | 260 kts | 6° |
| 2026-05-01 09:08 | -35.19191 | 149.20660 | 7496 ft | 265 kts | 5° |
| 2026-05-01 09:08 | -35.17341 | 149.20876 | 8520 ft | 269 kts | 5° |
| 2026-05-01 09:09 | -35.15457 | 149.21088 | 9555 ft | 275 kts | 5° |
| 2026-05-01 09:09 | -35.13519 | 149.21301 | 10318 ft | 291 kts | 5° |
| 2026-05-01 09:09 | -35.11394 | 149.21655 | 10443 ft | 326 kts | 13° |
| 2026-05-01 09:09 | -35.09127 | 149.22500 | 10800 ft | 350 kts | 19° |
| 2026-05-01 09:10 | -35.06840 | 149.23556 | 11750 ft | 354 kts | 20° |
| 2026-05-01 09:10 | -35.04533 | 149.24667 | 12725 ft | 358 kts | 21° |
| 2026-05-01 09:10 | -35.02204 | 149.25793 | 13670 ft | 363 kts | 21° |
| 2026-05-01 09:10 | -34.99839 | 149.26929 | 14531 ft | 367 kts | 20° |
| 2026-05-01 09:11 | -34.97442 | 149.28072 | 15290 ft | 372 kts | 20° |
| 2026-05-01 09:11 | -34.95009 | 149.29225 | 16005 ft | 378 kts | 20° |
| 2026-05-01 09:11 | -34.92539 | 149.30391 | 16716 ft | 384 kts | 20° |
| 2026-05-01 09:11 | -34.90033 | 149.31571 | 17421 ft | 389 kts | 20° |
| 2026-05-01 09:12 | -34.87493 | 149.32765 | 18113 ft | 394 kts | 20° |
| 2026-05-01 09:12 | -34.84919 | 149.33974 | 18779 ft | 399 kts | 20° |
| 2026-05-01 09:12 | -34.82318 | 149.35194 | 19379 ft | 403 kts | 20° |
| 2026-05-01 09:12 | -34.79693 | 149.36425 | 19981 ft | 406 kts | 20° |
| 2026-05-01 09:13 | -34.77062 | 149.37722 | 20549 ft | 410 kts | 24° |
| 2026-05-01 09:13 | -34.74580 | 149.39464 | 21115 ft | 415 kts | 36° |
| 2026-05-01 09:13 | -34.72503 | 149.41925 | 21642 ft | 423 kts | 51° |
| 2026-05-01 09:13 | -34.70893 | 149.44938 | 22018 ft | 427 kts | 59° |
| 2026-05-01 09:14 | -34.69530 | 149.48165 | 22413 ft | 431 kts | 63° |
| 2026-05-01 09:14 | -34.68231 | 149.51458 | 22802 ft | 434 kts | 63° |
| 2026-05-01 09:14 | -34.66914 | 149.54771 | 22945 ft | 436 kts | 62° |
| 2026-05-01 09:14 | -34.65591 | 149.58003 | 22975 ft | 416 kts | 62° |
| 2026-05-01 09:15 | -34.64733 | 149.60054 | 22978 ft | 410 kts | 61° |
| 2026-05-01 09:15 | -34.62986 | 149.64140 | 22993 ft | 406 kts | 60° |
| 2026-05-01 09:15 | -34.62117 | 149.66144 | 22997 ft | 405 kts | 60° |
| 2026-05-01 09:15 | -34.60802 | 149.69164 | 22992 ft | 405 kts | 60° |
| 2026-05-01 09:16 | -34.59485 | 149.72180 | 22995 ft | 405 kts | 60° |
| 2026-05-01 09:16 | -34.58163 | 149.75203 | 22998 ft | 405 kts | 60° |
| 2026-05-01 09:16 | -34.56843 | 149.78220 | 22999 ft | 405 kts | 60° |
| 2026-05-01 09:17 | -34.54203 | 149.84250 | 23002 ft | 405 kts | 60° |
| 2026-05-01 09:17 | -34.52882 | 149.87264 | 23000 ft | 405 kts | 60° |
| 2026-05-01 09:17 | -34.50236 | 149.93287 | 23001 ft | 404 kts | 60° |
| 2026-05-01 09:18 | -34.48906 | 149.96287 | 23001 ft | 404 kts | 60° |
| 2026-05-01 09:18 | -34.46227 | 150.02317 | 22938 ft | 418 kts | 60° |
| 2026-05-01 09:19 | -34.43446 | 150.08580 | 21808 ft | 423 kts | 60° |
| 2026-05-01 09:19 | -34.42054 | 150.11721 | 21163 ft | 423 kts | 60° |
| 2026-05-01 09:19 | -34.40664 | 150.14855 | 20530 ft | 422 kts | 60° |
| 2026-05-01 09:20 | -34.37913 | 150.21048 | 19294 ft | 414 kts | 60° |
| 2026-05-01 09:20 | -34.35215 | 150.27111 | 18025 ft | 405 kts | 61° |
| 2026-05-01 09:21 | -34.32589 | 150.32999 | 16799 ft | 396 kts | 60° |
| 2026-05-01 09:21 | -34.31288 | 150.35914 | 16232 ft | 392 kts | 61° |
| 2026-05-01 09:21 | -34.28719 | 150.41658 | 15099 ft | 384 kts | 60° |
| 2026-05-01 09:22 | -34.26194 | 150.47283 | 13988 ft | 377 kts | 60° |
| 2026-05-01 09:22 | -34.23720 | 150.52799 | 12863 ft | 370 kts | 60° |
| 2026-05-01 09:23 | -34.22497 | 150.55527 | 12327 ft | 368 kts | 60° |
| 2026-05-01 09:23 | -34.20083 | 150.60916 | 11345 ft | 362 kts | 60° |
| 2026-05-01 09:24 | -34.17719 | 150.66181 | 10925 ft | 342 kts | 60° |
| 2026-05-01 09:24 | -34.16613 | 150.68638 | 10807 ft | 324 kts | 60° |
| 2026-05-01 09:24 | -34.14563 | 150.73190 | 10559 ft | 294 kts | 60° |
| 2026-05-01 09:25 | -34.12660 | 150.77412 | 9825 ft | 284 kts | 60° |
| 2026-05-01 09:25 | -34.10775 | 150.81589 | 9026 ft | 277 kts | 60° |
| 2026-05-01 09:26 | -34.09871 | 150.83599 | 8942 ft | 271 kts | 60° |
| 2026-05-01 09:26 | -34.08082 | 150.87586 | 8939 ft | 270 kts | 60° |
| 2026-05-01 09:26 | -34.07186 | 150.89583 | 8934 ft | 270 kts | 60° |
| 2026-05-01 09:27 | -34.05396 | 150.93573 | 8940 ft | 270 kts | 60° |
| 2026-05-01 09:27 | -34.04502 | 150.95564 | 8935 ft | 270 kts | 60° |
| 2026-05-01 09:27 | -34.03671 | 150.97592 | 8934 ft | 270 kts | 68° |
| 2026-05-01 09:28 | -34.03312 | 150.99811 | 8919 ft | 273 kts | 89° |
| 2026-05-01 09:28 | -34.03748 | 151.02026 | 8922 ft | 277 kts | 115° |
| 2026-05-01 09:28 | -34.04877 | 151.03934 | 8935 ft | 282 kts | 129° |
| 2026-05-01 09:28 | -34.06210 | 151.05672 | 8928 ft | 283 kts | 131° |
| 2026-05-01 09:29 | -34.09519 | 151.08174 | 8900 ft | 289 kts | 162° |
| 2026-05-01 09:29 | -34.11480 | 151.08750 | 8787 ft | 292 kts | 166° |
| 2026-05-01 09:30 | -34.15509 | 151.09752 | 7784 ft | 297 kts | 167° |
| 2026-05-01 09:30 | -34.17501 | 151.10245 | 7312 ft | 287 kts | 166° |
| 2026-05-01 09:30 | -34.21327 | 151.11208 | 6422 ft | 278 kts | 166° |
| 2026-05-01 09:31 | -34.23217 | 151.11688 | 6008 ft | 276 kts | 166° |
| 2026-05-01 09:31 | -34.25101 | 151.12169 | 5604 ft | 277 kts | 166° |
| 2026-05-01 09:31 | -34.28764 | 151.13347 | 4804 ft | 269 kts | 147° |
| 2026-05-01 09:32 | -34.30081 | 151.14850 | 4582 ft | 259 kts | 119° |
| 2026-05-01 09:32 | -34.30573 | 151.18759 | 4236 ft | 227 kts | 83° |
| 2026-05-01 09:32 | -34.30442 | 151.20652 | 4081 ft | 225 kts | 83° |
| 2026-05-01 09:33 | -34.30061 | 151.22455 | 3927 ft | 220 kts | 59° |
| 2026-05-01 09:33 | -34.28986 | 151.23723 | 3795 ft | 218 kts | 29° |
| 2026-05-01 09:33 | -34.26181 | 151.25179 | 3531 ft | 219 kts | 27° |
| 2026-05-01 09:34 | -34.24853 | 151.26068 | 3379 ft | 220 kts | 20° |
| 2026-05-01 09:34 | -34.23350 | 151.26126 | 3239 ft | 221 kts | 348° |
| 2026-05-01 09:34 | -34.20434 | 151.24795 | 3128 ft | 226 kts | 341° |
| 2026-05-01 09:35 | -34.18988 | 151.24148 | 3061 ft | 225 kts | 343° |
| 2026-05-01 09:35 | -34.16016 | 151.23180 | 3003 ft | 209 kts | 351° |
| 2026-05-01 09:35 | -34.14691 | 151.22826 | 2950 ft | 184 kts | 351° |
| 2026-05-01 09:36 | -34.13448 | 151.22500 | 2980 ft | 182 kts | 351° |
| 2026-05-01 09:36 | -34.12213 | 151.22178 | 2999 ft | 182 kts | 351° |
| 2026-05-01 09:36 | -34.10976 | 151.21855 | 2925 ft | 183 kts | 352° |
| 2026-05-01 09:36 | -34.09737 | 151.21531 | 2687 ft | 181 kts | 352° |
| 2026-05-01 09:37 | -34.08503 | 151.21210 | 2452 ft | 181 kts | 351° |
| 2026-05-01 09:37 | -34.06111 | 151.20583 | 1936 ft | 163 kts | 351° |
| 2026-05-01 09:37 | -34.05021 | 151.20298 | 1757 ft | 159 kts | 352° |
| 2026-05-01 09:38 | -34.02850 | 151.19735 | 1345 ft | 160 kts | 352° |
| 2026-05-01 09:38 | -34.01763 | 151.19452 | 1133 ft | 159 kts | 352° |
| 2026-05-01 09:38 | -34.00696 | 151.19174 | 924 ft | 159 kts | 351° |
| 2026-05-01 09:39 | -33.98540 | 151.18614 | 513 ft | 158 kts | 352° |
| 2026-05-01 09:39 | -33.97463 | 151.18335 | 273 ft | 159 kts | 348° |
| 2026-05-01 09:39 | -33.96388 | 151.18053 | 93 ft | 159 kts | 349° |
| 2026-05-01 09:40 | -33.95378 | 151.17795 | 36 ft | 128 kts | 348° |
| 2026-05-01 09:40 | -33.94386 | 151.17421 | 37 ft | 43 kts | 318° |
| 2026-05-01 09:40 | -33.94322 | 151.17351 | 38 ft | 0 kts | 319° |
| 2026-05-01 09:41 | -33.94310 | 151.17338 | 36 ft | 6 kts | 319° |
| 2026-05-01 09:41 | -33.94277 | 151.17309 | 35 ft | 6 kts | 328° |